sensor_id;sensor_type;location;lat;lon;timestamp;temperature;humidity
43651;DHT22;29247;50.944;5.382;2024-03-02T00:00:35;21.00;57.20
43651;DHT22;29247;50.944;5.382;2024-03-02T00:03:04;21.00;57.20
43651;DHT22;29247;50.944;5.382;2024-03-02T00:05:29;21.00;57.20
43651;DHT22;29247;50.944;5.382;2024-03-02T00:07:57;21.00;57.30
43651;DHT22;29247;50.944;5.382;2024-03-02T00:10:37;20.90;57.20
43651;DHT22;29247;50.944;5.382;2024-03-02T00:13:07;21.00;57.30
43651;DHT22;29247;50.944;5.382;2024-03-02T00:18:11;21.00;57.30
43651;DHT22;29247;50.944;5.382;2024-03-02T00:20:40;20.90;57.30
43651;DHT22;29247;50.944;5.382;2024-03-02T00:23:09;20.90;57.90
43651;DHT22;29247;50.944;5.382;2024-03-02T00:25:49;20.90;57.30
43651;DHT22;29247;50.944;5.382;2024-03-02T00:28:25;20.90;57.30
43651;DHT22;29247;50.944;5.382;2024-03-02T00:33:20;20.90;57.40
43651;DHT22;29247;50.944;5.382;2024-03-02T00:35:49;20.90;57.40
43651;DHT22;29247;50.944;5.382;2024-03-02T00:38:15;20.90;57.40
43651;DHT22;29247;50.944;5.382;2024-03-02T00:40:42;20.90;57.40
43651;DHT22;29247;50.944;5.382;2024-03-02T00:46:17;20.90;57.40
43651;DHT22;29247;50.944;5.382;2024-03-02T00:48:54;20.80;57.40
43651;DHT22;29247;50.944;5.382;2024-03-02T00:51:24;20.80;57.40
43651;DHT22;29247;50.944;5.382;2024-03-02T00:53:51;20.80;57.40
43651;DHT22;29247;50.944;5.382;2024-03-02T00:56:20;20.80;57.40
43651;DHT22;29247;50.944;5.382;2024-03-02T00:58:46;20.80;57.50
43651;DHT22;29247;50.944;5.382;2024-03-02T01:01:12;20.80;57.60
43651;DHT22;29247;50.944;5.382;2024-03-02T01:03:40;20.80;57.50
43651;DHT22;29247;50.944;5.382;2024-03-02T01:06:09;20.80;57.60
43651;DHT22;29247;50.944;5.382;2024-03-02T01:08:37;20.80;57.60
43651;DHT22;29247;50.944;5.382;2024-03-02T01:11:03;20.80;57.60
43651;DHT22;29247;50.944;5.382;2024-03-02T01:13:31;20.80;57.60
43651;DHT22;29247;50.944;5.382;2024-03-02T01:16:02;20.70;57.60
43651;DHT22;29247;50.944;5.382;2024-03-02T01:18:28;20.80;57.70
43651;DHT22;29247;50.944;5.382;2024-03-02T01:20:54;20.70;57.60
43651;DHT22;29247;50.944;5.382;2024-03-02T01:23:23;20.70;57.60
43651;DHT22;29247;50.944;5.382;2024-03-02T01:25:50;20.70;57.60
43651;DHT22;29247;50.944;5.382;2024-03-02T01:28:16;20.70;57.60
43651;DHT22;29247;50.944;5.382;2024-03-02T01:30:42;20.70;57.60
43651;DHT22;29247;50.944;5.382;2024-03-02T01:33:08;20.70;57.70
43651;DHT22;29247;50.944;5.382;2024-03-02T01:35:34;20.70;57.70
43651;DHT22;29247;50.944;5.382;2024-03-02T01:38:03;20.70;57.70
43651;DHT22;29247;50.944;5.382;2024-03-02T01:40:34;20.70;57.70
43651;DHT22;29247;50.944;5.382;2024-03-02T01:43:00;20.70;57.70
43651;DHT22;29247;50.944;5.382;2024-03-02T01:45:27;20.70;57.70
43651;DHT22;29247;50.944;5.382;2024-03-02T01:47:53;20.70;57.70
43651;DHT22;29247;50.944;5.382;2024-03-02T01:50:31;20.70;57.70
43651;DHT22;29247;50.944;5.382;2024-03-02T01:52:58;20.70;57.70
43651;DHT22;29247;50.944;5.382;2024-03-02T01:55:24;20.60;57.60
43651;DHT22;29247;50.944;5.382;2024-03-02T01:57:51;20.70;57.70
43651;DHT22;29247;50.944;5.382;2024-03-02T02:00:18;20.70;57.70
43651;DHT22;29247;50.944;5.382;2024-03-02T02:02:45;20.60;57.60
43651;DHT22;29247;50.944;5.382;2024-03-02T02:05:13;20.60;57.70
43651;DHT22;29247;50.944;5.382;2024-03-02T02:07:44;20.60;57.70
43651;DHT22;29247;50.944;5.382;2024-03-02T02:10:10;20.70;57.80
43651;DHT22;29247;50.944;5.382;2024-03-02T02:12:37;20.60;57.70
43651;DHT22;29247;50.944;5.382;2024-03-02T02:15:03;20.60;57.70
43651;DHT22;29247;50.944;5.382;2024-03-02T02:17:31;20.60;57.80
43651;DHT22;29247;50.944;5.382;2024-03-02T02:19:57;20.60;57.70
43651;DHT22;29247;50.944;5.382;2024-03-02T02:22:23;20.60;57.80
43651;DHT22;29247;50.944;5.382;2024-03-02T02:24:53;20.60;57.80
43651;DHT22;29247;50.944;5.382;2024-03-02T02:27:19;20.60;57.80
43651;DHT22;29247;50.944;5.382;2024-03-02T02:29:44;20.60;57.80
43651;DHT22;29247;50.944;5.382;2024-03-02T02:32:10;20.60;58.20
43651;DHT22;29247;50.944;5.382;2024-03-02T02:34:36;20.50;57.80
43651;DHT22;29247;50.944;5.382;2024-03-02T02:37:04;20.50;57.80
43651;DHT22;29247;50.944;5.382;2024-03-02T02:39:29;20.50;57.80
43651;DHT22;29247;50.944;5.382;2024-03-02T02:41:58;20.50;57.80
43651;DHT22;29247;50.944;5.382;2024-03-02T02:44:23;20.50;57.80
43651;DHT22;29247;50.944;5.382;2024-03-02T02:46:49;20.50;57.80
43651;DHT22;29247;50.944;5.382;2024-03-02T02:49:17;20.50;57.80
43651;DHT22;29247;50.944;5.382;2024-03-02T02:51:48;20.50;57.80
43651;DHT22;29247;50.944;5.382;2024-03-02T02:54:14;20.50;57.90
43651;DHT22;29247;50.944;5.382;2024-03-02T02:56:41;20.40;57.80
43651;DHT22;29247;50.944;5.382;2024-03-02T02:59:10;20.50;57.90
43651;DHT22;29247;50.944;5.382;2024-03-02T03:01:35;20.40;57.80
43651;DHT22;29247;50.944;5.382;2024-03-02T03:04:03;20.40;57.80
43651;DHT22;29247;50.944;5.382;2024-03-02T03:06:29;20.40;57.80
43651;DHT22;29247;50.944;5.382;2024-03-02T03:08:54;20.40;57.90
43651;DHT22;29247;50.944;5.382;2024-03-02T03:11:20;20.40;57.80
43651;DHT22;29247;50.944;5.382;2024-03-02T03:13:48;20.40;57.90
43651;DHT22;29247;50.944;5.382;2024-03-02T03:16:13;20.40;57.90
43651;DHT22;29247;50.944;5.382;2024-03-02T03:18:39;20.40;57.90
43651;DHT22;29247;50.944;5.382;2024-03-02T03:21:05;20.40;57.90
43651;DHT22;29247;50.944;5.382;2024-03-02T03:23:35;20.40;57.90
43651;DHT22;29247;50.944;5.382;2024-03-02T03:26:00;20.30;57.90
43651;DHT22;29247;50.944;5.382;2024-03-02T03:28:29;20.30;57.80
43651;DHT22;29247;50.944;5.382;2024-03-02T03:30:54;20.30;57.90
43651;DHT22;29247;50.944;5.382;2024-03-02T03:33:20;20.30;58.00
43651;DHT22;29247;50.944;5.382;2024-03-02T03:35:45;20.30;57.90
43651;DHT22;29247;50.944;5.382;2024-03-02T03:38:11;20.30;57.90
43651;DHT22;29247;50.944;5.382;2024-03-02T03:40:37;20.30;58.00
43651;DHT22;29247;50.944;5.382;2024-03-02T03:43:03;20.30;58.00
43651;DHT22;29247;50.944;5.382;2024-03-02T03:45:28;20.30;58.00
43651;DHT22;29247;50.944;5.382;2024-03-02T03:47:55;20.30;58.00
43651;DHT22;29247;50.944;5.382;2024-03-02T03:50:21;20.30;58.00
43651;DHT22;29247;50.944;5.382;2024-03-02T03:52:47;20.30;58.00
43651;DHT22;29247;50.944;5.382;2024-03-02T03:55:12;20.20;57.90
43651;DHT22;29247;50.944;5.382;2024-03-02T03:57:39;20.30;58.00
43651;DHT22;29247;50.944;5.382;2024-03-02T04:00:05;20.30;58.00
43651;DHT22;29247;50.944;5.382;2024-03-02T04:02:35;20.30;58.00
43651;DHT22;29247;50.944;5.382;2024-03-02T04:05:04;20.20;58.00
43651;DHT22;29247;50.944;5.382;2024-03-02T04:07:35;20.20;58.00
43651;DHT22;29247;50.944;5.382;2024-03-02T04:10:10;20.20;58.00
43651;DHT22;29247;50.944;5.382;2024-03-02T04:12:40;20.20;58.00
43651;DHT22;29247;50.944;5.382;2024-03-02T04:15:08;20.20;58.00
43651;DHT22;29247;50.944;5.382;2024-03-02T04:17:36;20.20;58.00
43651;DHT22;29247;50.944;5.382;2024-03-02T04:20:02;20.20;58.10
43651;DHT22;29247;50.944;5.382;2024-03-02T04:22:30;20.20;58.00
43651;DHT22;29247;50.944;5.382;2024-03-02T04:25:00;20.10;58.00
43651;DHT22;29247;50.944;5.382;2024-03-02T04:27:28;20.10;58.10
43651;DHT22;29247;50.944;5.382;2024-03-02T04:29:57;20.10;58.00
43651;DHT22;29247;50.944;5.382;2024-03-02T04:32:23;20.10;58.10
43651;DHT22;29247;50.944;5.382;2024-03-02T04:34:48;20.10;58.10
43651;DHT22;29247;50.944;5.382;2024-03-02T04:37:17;20.10;58.10
43651;DHT22;29247;50.944;5.382;2024-03-02T04:39:42;20.10;58.10
43651;DHT22;29247;50.944;5.382;2024-03-02T04:42:10;20.10;58.10
43651;DHT22;29247;50.944;5.382;2024-03-02T04:44:36;20.10;58.20
43651;DHT22;29247;50.944;5.382;2024-03-02T04:47:06;20.10;58.20
43651;DHT22;29247;50.944;5.382;2024-03-02T04:49:34;20.10;58.20
43651;DHT22;29247;50.944;5.382;2024-03-02T04:51:59;20.20;58.30
43651;DHT22;29247;50.944;5.382;2024-03-02T04:54:30;20.20;58.30
43651;DHT22;29247;50.944;5.382;2024-03-02T04:56:58;20.20;58.20
43651;DHT22;29247;50.944;5.382;2024-03-02T04:59:23;20.20;58.20
43651;DHT22;29247;50.944;5.382;2024-03-02T05:01:49;20.20;58.20
43651;DHT22;29247;50.944;5.382;2024-03-02T05:04:15;20.30;58.20
43651;DHT22;29247;50.944;5.382;2024-03-02T05:06:41;20.30;58.20
43651;DHT22;29247;50.944;5.382;2024-03-02T05:09:09;20.30;58.20
43651;DHT22;29247;50.944;5.382;2024-03-02T05:11:35;20.30;58.10
43651;DHT22;29247;50.944;5.382;2024-03-02T05:14:07;20.30;58.20
43651;DHT22;29247;50.944;5.382;2024-03-02T05:16:37;20.30;58.20
43651;DHT22;29247;50.944;5.382;2024-03-02T05:19:08;20.30;58.20
43651;DHT22;29247;50.944;5.382;2024-03-02T05:21:34;20.40;58.30
43651;DHT22;29247;50.944;5.382;2024-03-02T05:24:00;20.30;58.30
43651;DHT22;29247;50.944;5.382;2024-03-02T05:26:27;20.40;58.40
43651;DHT22;29247;50.944;5.382;2024-03-02T05:28:53;20.40;58.40
43651;DHT22;29247;50.944;5.382;2024-03-02T05:31:21;20.40;58.40
43651;DHT22;29247;50.944;5.382;2024-03-02T05:33:47;20.40;58.40
43651;DHT22;29247;50.944;5.382;2024-03-02T05:36:12;20.40;58.40
43651;DHT22;29247;50.944;5.382;2024-03-02T05:38:38;20.50;58.50
43651;DHT22;29247;50.944;5.382;2024-03-02T05:41:04;20.50;58.40
43651;DHT22;29247;50.944;5.382;2024-03-02T05:43:30;20.50;58.40
43651;DHT22;29247;50.944;5.382;2024-03-02T05:45:58;20.50;58.30
43651;DHT22;29247;50.944;5.382;2024-03-02T05:48:23;20.50;58.30
43651;DHT22;29247;50.944;5.382;2024-03-02T05:50:51;20.50;58.30
43651;DHT22;29247;50.944;5.382;2024-03-02T05:53:17;20.60;58.30
43651;DHT22;29247;50.944;5.382;2024-03-02T05:55:43;20.60;58.30
43651;DHT22;29247;50.944;5.382;2024-03-02T05:58:10;20.60;58.20
43651;DHT22;29247;50.944;5.382;2024-03-02T06:00:55;20.60;58.20
43651;DHT22;29247;50.944;5.382;2024-03-02T06:03:22;20.70;58.20
43651;DHT22;29247;50.944;5.382;2024-03-02T06:05:48;20.70;58.20
43651;DHT22;29247;50.944;5.382;2024-03-02T06:08:14;20.70;58.20
43651;DHT22;29247;50.944;5.382;2024-03-02T06:10:43;20.70;58.10
43651;DHT22;29247;50.944;5.382;2024-03-02T06:13:09;20.70;58.10
43651;DHT22;29247;50.944;5.382;2024-03-02T06:15:34;20.80;58.20
43651;DHT22;29247;50.944;5.382;2024-03-02T06:18:01;20.80;58.10
43651;DHT22;29247;50.944;5.382;2024-03-02T06:20:27;20.80;58.20
43651;DHT22;29247;50.944;5.382;2024-03-02T06:22:52;20.80;58.10
43651;DHT22;29247;50.944;5.382;2024-03-02T06:25:18;20.80;58.00
43651;DHT22;29247;50.944;5.382;2024-03-02T06:27:44;20.80;58.10
43651;DHT22;29247;50.944;5.382;2024-03-02T06:30:12;20.80;58.00
43651;DHT22;29247;50.944;5.382;2024-03-02T06:32:38;20.80;58.00
43651;DHT22;29247;50.944;5.382;2024-03-02T06:35:04;20.80;58.00
43651;DHT22;29247;50.944;5.382;2024-03-02T06:37:31;20.90;58.10
43651;DHT22;29247;50.944;5.382;2024-03-02T06:39:56;20.90;58.10
43651;DHT22;29247;50.944;5.382;2024-03-02T06:42:22;20.90;58.10
43651;DHT22;29247;50.944;5.382;2024-03-02T06:44:51;20.90;58.00
43651;DHT22;29247;50.944;5.382;2024-03-02T06:47:17;20.90;58.00
43651;DHT22;29247;50.944;5.382;2024-03-02T06:49:43;21.00;58.10
43651;DHT22;29247;50.944;5.382;2024-03-02T06:52:08;21.00;58.10
43651;DHT22;29247;50.944;5.382;2024-03-02T06:54:34;21.00;58.10
43651;DHT22;29247;50.944;5.382;2024-03-02T06:57:01;21.00;58.20
43651;DHT22;29247;50.944;5.382;2024-03-02T06:59:27;21.00;58.10
43651;DHT22;29247;50.944;5.382;2024-03-02T07:01:53;21.10;58.10
43651;DHT22;29247;50.944;5.382;2024-03-02T07:04:18;21.10;58.20
43651;DHT22;29247;50.944;5.382;2024-03-02T07:06:44;21.20;58.40
43651;DHT22;29247;50.944;5.382;2024-03-02T07:09:09;21.20;58.60
43651;DHT22;29247;50.944;5.382;2024-03-02T07:11:36;21.20;58.70
43651;DHT22;29247;50.944;5.382;2024-03-02T07:14:02;21.30;58.80
43651;DHT22;29247;50.944;5.382;2024-03-02T07:16:28;21.30;58.80
43651;DHT22;29247;50.944;5.382;2024-03-02T07:18:58;21.30;58.70
43651;DHT22;29247;50.944;5.382;2024-03-02T07:21:24;21.40;58.70
43651;DHT22;29247;50.944;5.382;2024-03-02T07:23:50;21.40;58.80
43651;DHT22;29247;50.944;5.382;2024-03-02T07:26:16;21.40;58.80
43651;DHT22;29247;50.944;5.382;2024-03-02T07:28:44;21.40;58.70
43651;DHT22;29247;50.944;5.382;2024-03-02T07:31:09;21.40;58.70
43651;DHT22;29247;50.944;5.382;2024-03-02T07:33:35;21.50;58.70
43651;DHT22;29247;50.944;5.382;2024-03-02T07:36:04;21.50;58.70
43651;DHT22;29247;50.944;5.382;2024-03-02T07:38:30;21.50;58.70
43651;DHT22;29247;50.944;5.382;2024-03-02T07:40:59;21.50;58.80
43651;DHT22;29247;50.944;5.382;2024-03-02T07:43:25;21.50;58.90
43651;DHT22;29247;50.944;5.382;2024-03-02T07:45:51;21.60;58.80
43651;DHT22;29247;50.944;5.382;2024-03-02T07:48:19;21.60;58.70
43651;DHT22;29247;50.944;5.382;2024-03-02T07:50:47;21.70;58.80
43651;DHT22;29247;50.944;5.382;2024-03-02T07:53:13;21.70;59.50
43651;DHT22;29247;50.944;5.382;2024-03-02T07:55:40;21.80;59.10
43651;DHT22;29247;50.944;5.382;2024-03-02T07:58:11;21.80;59.00
43651;DHT22;29247;50.944;5.382;2024-03-02T08:00:39;21.90;59.50
43651;DHT22;29247;50.944;5.382;2024-03-02T08:03:08;22.00;58.80
43651;DHT22;29247;50.944;5.382;2024-03-02T08:05:37;22.10;58.70
43651;DHT22;29247;50.944;5.382;2024-03-02T08:08:05;22.10;58.50
43651;DHT22;29247;50.944;5.382;2024-03-02T08:10:30;22.20;58.50
43651;DHT22;29247;50.944;5.382;2024-03-02T08:12:56;22.20;58.50
43651;DHT22;29247;50.944;5.382;2024-03-02T08:15:24;22.30;58.50
43651;DHT22;29247;50.944;5.382;2024-03-02T08:17:52;22.30;58.40
43651;DHT22;29247;50.944;5.382;2024-03-02T08:20:18;22.40;58.30
43651;DHT22;29247;50.944;5.382;2024-03-02T08:22:45;22.40;58.20
43651;DHT22;29247;50.944;5.382;2024-03-02T08:25:13;22.40;58.20
43651;DHT22;29247;50.944;5.382;2024-03-02T08:27:42;22.40;58.10
43651;DHT22;29247;50.944;5.382;2024-03-02T08:30:08;22.50;58.10
43651;DHT22;29247;50.944;5.382;2024-03-02T08:32:36;22.50;58.00
43651;DHT22;29247;50.944;5.382;2024-03-02T08:35:03;22.50;58.00
43651;DHT22;29247;50.944;5.382;2024-03-02T08:37:32;22.50;58.00
43651;DHT22;29247;50.944;5.382;2024-03-02T08:39:57;22.50;58.00
43651;DHT22;29247;50.944;5.382;2024-03-02T08:42:25;22.50;58.00
43651;DHT22;29247;50.944;5.382;2024-03-02T08:44:52;22.50;58.00
43651;DHT22;29247;50.944;5.382;2024-03-02T08:47:20;22.50;57.90
43651;DHT22;29247;50.944;5.382;2024-03-02T08:49:48;22.50;58.50
43651;DHT22;29247;50.944;5.382;2024-03-02T08:52:13;22.50;57.90
43651;DHT22;29247;50.944;5.382;2024-03-02T08:54:42;22.50;57.90
43651;DHT22;29247;50.944;5.382;2024-03-02T08:57:07;22.50;57.90
43651;DHT22;29247;50.944;5.382;2024-03-02T08:59:33;22.50;58.00
43651;DHT22;29247;50.944;5.382;2024-03-02T09:01:59;22.50;58.00
43651;DHT22;29247;50.944;5.382;2024-03-02T09:04:25;22.50;58.00
43651;DHT22;29247;50.944;5.382;2024-03-02T09:06:50;22.50;58.00
43651;DHT22;29247;50.944;5.382;2024-03-02T09:09:16;22.50;58.50
43651;DHT22;29247;50.944;5.382;2024-03-02T09:11:46;22.50;58.00
43651;DHT22;29247;50.944;5.382;2024-03-02T09:14:12;22.50;58.00
43651;DHT22;29247;50.944;5.382;2024-03-02T09:16:38;22.50;57.90
43651;DHT22;29247;50.944;5.382;2024-03-02T09:19:03;22.50;57.90
43651;DHT22;29247;50.944;5.382;2024-03-02T09:21:29;22.50;57.90
43651;DHT22;29247;50.944;5.382;2024-03-02T09:23:58;22.50;58.00
43651;DHT22;29247;50.944;5.382;2024-03-02T09:26:24;22.50;57.90
43651;DHT22;29247;50.944;5.382;2024-03-02T09:28:50;22.50;58.00
43651;DHT22;29247;50.944;5.382;2024-03-02T09:31:18;22.40;57.70
43651;DHT22;29247;50.944;5.382;2024-03-02T09:33:44;22.40;57.70
43651;DHT22;29247;50.944;5.382;2024-03-02T09:36:22;22.40;57.70
43651;DHT22;29247;50.944;5.382;2024-03-02T09:38:48;22.40;57.70
43651;DHT22;29247;50.944;5.382;2024-03-02T09:41:15;22.40;57.70
43651;DHT22;29247;50.944;5.382;2024-03-02T09:43:40;22.30;57.60
43651;DHT22;29247;50.944;5.382;2024-03-02T09:46:11;22.30;57.60
43651;DHT22;29247;50.944;5.382;2024-03-02T09:48:37;22.30;57.60
43651;DHT22;29247;50.944;5.382;2024-03-02T09:51:06;22.30;57.60
43651;DHT22;29247;50.944;5.382;2024-03-02T09:53:33;22.40;57.70
43651;DHT22;29247;50.944;5.382;2024-03-02T09:56:00;22.30;57.60
43651;DHT22;29247;50.944;5.382;2024-03-02T09:58:28;22.20;57.50
43651;DHT22;29247;50.944;5.382;2024-03-02T10:00:54;22.20;57.30
43651;DHT22;29247;50.944;5.382;2024-03-02T10:03:25;22.20;57.10
43651;DHT22;29247;50.944;5.382;2024-03-02T10:05:52;22.20;57.00
43651;DHT22;29247;50.944;5.382;2024-03-02T10:08:18;22.20;56.80
43651;DHT22;29247;50.944;5.382;2024-03-02T10:10:43;22.10;56.10
43651;DHT22;29247;50.944;5.382;2024-03-02T10:13:13;22.10;55.80
43651;DHT22;29247;50.944;5.382;2024-03-02T10:15:40;22.10;55.80
43651;DHT22;29247;50.944;5.382;2024-03-02T10:18:12;22.10;55.90
43651;DHT22;29247;50.944;5.382;2024-03-02T10:20:39;22.10;55.90
43651;DHT22;29247;50.944;5.382;2024-03-02T10:23:14;22.00;55.90
43651;DHT22;29247;50.944;5.382;2024-03-02T10:25:41;22.10;56.00
43651;DHT22;29247;50.944;5.382;2024-03-02T10:28:07;22.00;55.90
43651;DHT22;29247;50.944;5.382;2024-03-02T10:30:34;22.00;55.80
43651;DHT22;29247;50.944;5.382;2024-03-02T10:33:05;22.00;55.80
43651;DHT22;29247;50.944;5.382;2024-03-02T10:35:30;22.00;55.80
43651;DHT22;29247;50.944;5.382;2024-03-02T10:37:59;22.00;55.90
43651;DHT22;29247;50.944;5.382;2024-03-02T10:40:26;22.00;56.00
43651;DHT22;29247;50.944;5.382;2024-03-02T10:42:55;22.00;56.10
43651;DHT22;29247;50.944;5.382;2024-03-02T10:45:24;22.00;56.20
43651;DHT22;29247;50.944;5.382;2024-03-02T10:47:50;22.00;56.20
43651;DHT22;29247;50.944;5.382;2024-03-02T10:50:16;22.00;56.30
43651;DHT22;29247;50.944;5.382;2024-03-02T10:52:42;22.00;56.40
43651;DHT22;29247;50.944;5.382;2024-03-02T10:55:11;22.00;56.60
43651;DHT22;29247;50.944;5.382;2024-03-02T10:57:57;22.10;56.70
43651;DHT22;29247;50.944;5.382;2024-03-02T11:00:33;22.20;56.80
43651;DHT22;29247;50.944;5.382;2024-03-02T11:03:07;22.20;57.00
43651;DHT22;29247;50.944;5.382;2024-03-02T11:05:40;22.20;57.20
43651;DHT22;29247;50.944;5.382;2024-03-02T11:08:08;22.20;57.90
43651;DHT22;29247;50.944;5.382;2024-03-02T11:10:45;22.30;57.50
43651;DHT22;29247;50.944;5.382;2024-03-02T11:13:18;22.30;57.50
43651;DHT22;29247;50.944;5.382;2024-03-02T11:15:47;22.30;57.60
43651;DHT22;29247;50.944;5.382;2024-03-02T11:18:14;22.40;57.70
43651;DHT22;29247;50.944;5.382;2024-03-02T11:20:41;22.40;57.60
43651;DHT22;29247;50.944;5.382;2024-03-02T11:23:08;22.40;57.60
43651;DHT22;29247;50.944;5.382;2024-03-02T11:25:34;22.40;57.50
43651;DHT22;29247;50.944;5.382;2024-03-02T11:28:06;22.40;57.50
43651;DHT22;29247;50.944;5.382;2024-03-02T11:33:04;22.50;57.60
43651;DHT22;29247;50.944;5.382;2024-03-02T11:35:42;22.50;57.60
43651;DHT22;29247;50.944;5.382;2024-03-02T11:38:13;22.50;57.70
43651;DHT22;29247;50.944;5.382;2024-03-02T11:40:40;22.60;57.80
43651;DHT22;29247;50.944;5.382;2024-03-02T11:43:06;22.60;57.80
43651;DHT22;29247;50.944;5.382;2024-03-02T11:45:35;22.60;57.80
43651;DHT22;29247;50.944;5.382;2024-03-02T11:48:06;22.60;57.60
43651;DHT22;29247;50.944;5.382;2024-03-02T11:50:47;22.60;57.60
43651;DHT22;29247;50.944;5.382;2024-03-02T11:53:15;22.70;57.70
43651;DHT22;29247;50.944;5.382;2024-03-02T11:55:41;22.70;57.80
43651;DHT22;29247;50.944;5.382;2024-03-02T11:58:12;22.70;58.00
43651;DHT22;29247;50.944;5.382;2024-03-02T12:00:40;22.70;58.10
43651;DHT22;29247;50.944;5.382;2024-03-02T12:03:08;22.80;58.20
43651;DHT22;29247;50.944;5.382;2024-03-02T12:05:35;22.80;58.30
43651;DHT22;29247;50.944;5.382;2024-03-02T12:08:02;22.80;58.30
43651;DHT22;29247;50.944;5.382;2024-03-02T12:10:29;22.80;58.40
43651;DHT22;29247;50.944;5.382;2024-03-02T12:13:02;22.80;58.40
43651;DHT22;29247;50.944;5.382;2024-03-02T12:15:30;22.80;58.50
43651;DHT22;29247;50.944;5.382;2024-03-02T12:17:59;22.80;58.50
43651;DHT22;29247;50.944;5.382;2024-03-02T12:20:26;22.90;58.60
43651;DHT22;29247;50.944;5.382;2024-03-02T12:22:57;22.90;58.90
43651;DHT22;29247;50.944;5.382;2024-03-02T12:25:26;22.90;59.20
43651;DHT22;29247;50.944;5.382;2024-03-02T12:27:56;22.90;58.50
43651;DHT22;29247;50.944;5.382;2024-03-02T12:30:22;22.90;58.50
43651;DHT22;29247;50.944;5.382;2024-03-02T12:32:48;22.90;59.10
43651;DHT22;29247;50.944;5.382;2024-03-02T12:35:14;22.90;58.40
43651;DHT22;29247;50.944;5.382;2024-03-02T12:37:48;22.90;58.40
43651;DHT22;29247;50.944;5.382;2024-03-02T12:40:20;22.90;58.30
43651;DHT22;29247;50.944;5.382;2024-03-02T12:42:46;22.90;58.30
43651;DHT22;29247;50.944;5.382;2024-03-02T12:45:16;22.90;58.30
43651;DHT22;29247;50.944;5.382;2024-03-02T12:47:51;22.90;58.30
43651;DHT22;29247;50.944;5.382;2024-03-02T12:50:18;22.90;58.30
43651;DHT22;29247;50.944;5.382;2024-03-02T12:52:53;22.80;58.30
43651;DHT22;29247;50.944;5.382;2024-03-02T12:55:21;22.80;58.20
43651;DHT22;29247;50.944;5.382;2024-03-02T12:57:47;22.80;58.20
43651;DHT22;29247;50.944;5.382;2024-03-02T13:00:14;22.80;58.20
43651;DHT22;29247;50.944;5.382;2024-03-02T13:02:46;22.80;58.20
43651;DHT22;29247;50.944;5.382;2024-03-02T13:05:12;22.80;58.30
43651;DHT22;29247;50.944;5.382;2024-03-02T13:07:39;22.80;58.30
43651;DHT22;29247;50.944;5.382;2024-03-02T13:10:06;22.80;58.40
43651;DHT22;29247;50.944;5.382;2024-03-02T13:12:35;22.80;58.40
43651;DHT22;29247;50.944;5.382;2024-03-02T13:15:05;22.80;58.50
43651;DHT22;29247;50.944;5.382;2024-03-02T13:17:30;22.80;58.50
43651;DHT22;29247;50.944;5.382;2024-03-02T13:19:59;22.70;58.50
43651;DHT22;29247;50.944;5.382;2024-03-02T13:22:26;22.70;58.50
43651;DHT22;29247;50.944;5.382;2024-03-02T13:24:52;22.70;58.60
43651;DHT22;29247;50.944;5.382;2024-03-02T13:27:22;22.80;58.60
43651;DHT22;29247;50.944;5.382;2024-03-02T13:29:50;22.80;58.70
43651;DHT22;29247;50.944;5.382;2024-03-02T13:32:16;22.70;58.70
43651;DHT22;29247;50.944;5.382;2024-03-02T13:34:42;22.70;58.60
43651;DHT22;29247;50.944;5.382;2024-03-02T13:37:09;22.70;58.70
43651;DHT22;29247;50.944;5.382;2024-03-02T13:39:35;22.70;58.70
43651;DHT22;29247;50.944;5.382;2024-03-02T13:42:12;22.70;58.60
43651;DHT22;29247;50.944;5.382;2024-03-02T13:44:40;22.70;58.60
43651;DHT22;29247;50.944;5.382;2024-03-02T13:47:06;22.70;58.70
43651;DHT22;29247;50.944;5.382;2024-03-02T13:49:32;22.70;58.70
43651;DHT22;29247;50.944;5.382;2024-03-02T13:52:05;22.60;58.60
43651;DHT22;29247;50.944;5.382;2024-03-02T13:54:41;22.60;58.60
43651;DHT22;29247;50.944;5.382;2024-03-02T13:57:09;22.60;58.60
43651;DHT22;29247;50.944;5.382;2024-03-02T13:59:39;22.60;58.60
43651;DHT22;29247;50.944;5.382;2024-03-02T14:02:05;22.60;58.60
43651;DHT22;29247;50.944;5.382;2024-03-02T14:04:34;22.60;58.60
43651;DHT22;29247;50.944;5.382;2024-03-02T14:07:01;22.60;58.60
43651;DHT22;29247;50.944;5.382;2024-03-02T14:09:27;22.60;58.60
43651;DHT22;29247;50.944;5.382;2024-03-02T14:11:54;22.60;58.60
43651;DHT22;29247;50.944;5.382;2024-03-02T14:14:22;22.60;58.50
43651;DHT22;29247;50.944;5.382;2024-03-02T14:16:50;22.60;58.50
43651;DHT22;29247;50.944;5.382;2024-03-02T14:19:16;22.60;58.40
43651;DHT22;29247;50.944;5.382;2024-03-02T14:21:42;22.50;58.40
43651;DHT22;29247;50.944;5.382;2024-03-02T14:24:10;22.50;58.40
43651;DHT22;29247;50.944;5.382;2024-03-02T14:26:38;22.50;58.30
43651;DHT22;29247;50.944;5.382;2024-03-02T14:29:09;22.50;58.30
43651;DHT22;29247;50.944;5.382;2024-03-02T14:31:35;22.50;58.30
43651;DHT22;29247;50.944;5.382;2024-03-02T14:34:00;22.50;58.30
43651;DHT22;29247;50.944;5.382;2024-03-02T14:36:27;22.50;58.30
43651;DHT22;29247;50.944;5.382;2024-03-02T14:38:53;22.50;58.90
43651;DHT22;29247;50.944;5.382;2024-03-02T14:41:19;22.50;58.40
43651;DHT22;29247;50.944;5.382;2024-03-02T14:43:45;22.50;58.30
43651;DHT22;29247;50.944;5.382;2024-03-02T14:46:11;22.50;58.30
43651;DHT22;29247;50.944;5.382;2024-03-02T14:48:37;22.50;58.30
43651;DHT22;29247;50.944;5.382;2024-03-02T14:51:03;22.50;58.30
43651;DHT22;29247;50.944;5.382;2024-03-02T14:53:29;22.50;58.20
43651;DHT22;29247;50.944;5.382;2024-03-02T14:55:57;22.50;58.20
43651;DHT22;29247;50.944;5.382;2024-03-02T14:58:25;22.50;58.20
43651;DHT22;29247;50.944;5.382;2024-03-02T15:00:54;22.60;58.20
43651;DHT22;29247;50.944;5.382;2024-03-02T15:03:22;22.60;58.20
43651;DHT22;29247;50.944;5.382;2024-03-02T15:05:50;22.60;58.20
43651;DHT22;29247;50.944;5.382;2024-03-02T15:08:21;22.60;58.10
43651;DHT22;29247;50.944;5.382;2024-03-02T15:10:47;22.60;58.00
43651;DHT22;29247;50.944;5.382;2024-03-02T15:13:12;22.70;58.00
43651;DHT22;29247;50.944;5.382;2024-03-02T15:15:41;22.70;58.00
43651;DHT22;29247;50.944;5.382;2024-03-02T15:18:06;22.70;57.90
43651;DHT22;29247;50.944;5.382;2024-03-02T15:20:33;22.70;57.80
43651;DHT22;29247;50.944;5.382;2024-03-02T15:22:59;22.80;57.70
43651;DHT22;29247;50.944;5.382;2024-03-02T15:25:25;22.80;57.70
43651;DHT22;29247;50.944;5.382;2024-03-02T15:27:50;22.80;57.50
43651;DHT22;29247;50.944;5.382;2024-03-02T15:30:16;22.80;57.30
43651;DHT22;29247;50.944;5.382;2024-03-02T15:32:42;22.80;57.30
43651;DHT22;29247;50.944;5.382;2024-03-02T15:35:08;22.90;57.20
43651;DHT22;29247;50.944;5.382;2024-03-02T15:37:36;22.90;57.10
43651;DHT22;29247;50.944;5.382;2024-03-02T15:40:02;22.90;57.00
43651;DHT22;29247;50.944;5.382;2024-03-02T15:42:35;22.90;57.00